createdAt,value
2022-10-23T00:02:02.481Z,244657.00
2022-10-23T00:12:48.992Z,244657.00
2022-10-23T00:23:36.514Z,244657.00
2022-10-23T00:34:08.606Z,174167.00
2022-10-23T00:45:15.683Z,140124.00
2022-10-23T00:55:57.813Z,244653.00
2022-10-23T01:06:51.088Z,244657.00
2022-10-23T01:17:47.521Z,244657.00
2022-10-23T01:28:38.540Z,244657.00
2022-10-23T01:39:27.668Z,244657.00
2022-10-23T01:50:15.656Z,244657.00
2022-10-23T02:01:07.018Z,244657.00
2022-10-23T02:12:09.335Z,244657.00
2022-10-23T02:22:59.668Z,244657.00
2022-10-23T02:33:49.351Z,244657.00
2022-10-23T02:44:47.536Z,244657.00
2022-10-23T02:55:48.935Z,244657.00
2022-10-23T03:06:33.869Z,244657.00
2022-10-23T03:17:19.711Z,244657.00
2022-10-23T03:28:04.492Z,244657.00
2022-10-23T03:38:53.710Z,244657.00
2022-10-23T03:49:37.911Z,244657.00
2022-10-23T04:00:24.028Z,244657.00
2022-10-23T04:11:07.883Z,244657.00
2022-10-23T04:21:57.116Z,331915.00
2022-10-23T04:32:41.525Z,244657.00
2022-10-23T04:43:07.362Z,120312.00
2022-10-23T04:53:49.313Z,244657.00
2022-10-23T05:04:37.044Z,244657.00
2022-10-23T05:15:17.539Z,101461.00
2022-10-23T05:25:40.317Z,101449.00
2022-10-23T05:36:15.597Z,101468.00
2022-10-23T05:46:42.841Z,101481.00
2022-10-23T05:57:23.958Z,101478.00
2022-10-23T06:07:48.526Z,101477.00
2022-10-23T06:18:10.085Z,244657.00
2022-10-23T06:28:44.067Z,244657.00
2022-10-23T06:39:06.505Z,244657.00
2022-10-23T06:49:56.325Z,244657.00
2022-10-23T07:00:21.530Z,244657.00
2022-10-23T07:10:49.858Z,244657.00
2022-10-23T07:21:36.761Z,244657.00
2022-10-23T07:32:52.299Z,244657.00
2022-10-23T07:43:56.046Z,244657.00
2022-10-23T07:54:39.075Z,244657.00
2022-10-23T08:05:36.569Z,244657.00
2022-10-23T08:16:21.691Z,244657.00
2022-10-23T08:27:29.312Z,244657.00
2022-10-23T08:38:15.054Z,244657.00
2022-10-23T08:49:10.388Z,244657.00
2022-10-23T09:00:09.176Z,244657.00
2022-10-23T09:11:12.883Z,244657.00
2022-10-23T09:21:59.512Z,244657.00
2022-10-23T09:32:46.941Z,244657.00
2022-10-23T09:43:30.613Z,244657.00
2022-10-23T09:54:24.004Z,244657.00
2022-10-23T10:04:46.874Z,101440.00
2022-10-23T10:15:23.758Z,101437.00
2022-10-23T10:25:58.319Z,101429.00
2022-10-23T10:36:32.826Z,101418.00
2022-10-23T10:46:57.761Z,101416.00
2022-10-23T10:57:32.093Z,101405.00
2022-10-23T11:07:58.446Z,101397.00
2022-10-23T11:18:26.407Z,101376.00
2022-10-23T11:29:10.484Z,101361.00
2022-10-23T11:39:32.882Z,101346.00
2022-10-23T11:50:28.737Z,101337.00
2022-10-23T12:01:02.553Z,101324.00
2022-10-23T12:11:41.850Z,101325.00
2022-10-23T12:22:04.681Z,101297.00
2022-10-23T12:32:50.576Z,101289.00
2022-10-23T12:43:27.231Z,101291.00
2022-10-23T12:53:51.620Z,101268.00
2022-10-23T13:04:23.399Z,101253.00
2022-10-23T13:15:01.558Z,101242.00
2022-10-23T13:25:41.203Z,101221.00
2022-10-23T13:36:28.693Z,101216.00
2022-10-23T13:46:53.980Z,101217.00
2022-10-23T13:57:17.278Z,101214.00
2022-10-23T15:19:57.945Z,101140.00
2022-10-23T15:30:19.669Z,101129.00
2022-10-23T15:40:43.080Z,101121.00
2022-10-23T15:51:05.354Z,101104.00
2022-10-23T16:01:28.553Z,101099.00
2022-10-23T16:11:49.817Z,101104.00
2022-10-23T16:22:13.233Z,101080.00
2022-10-23T16:32:34.818Z,101071.00
2022-10-23T16:42:58.005Z,101064.00
2022-10-23T16:53:50.565Z,101043.00
2022-10-23T17:04:13.344Z,101042.00
2022-10-23T17:14:35.524Z,101024.00
2022-10-23T17:25:00.733Z,101009.00
2022-10-23T17:35:23.792Z,100998.00
2022-10-23T17:56:30.198Z,100968.00
2022-10-23T18:07:00.764Z,100980.00
2022-10-23T18:17:27.743Z,100965.00
2022-10-23T18:27:52.243Z,100954.00
2022-10-23T18:38:15.415Z,100943.00
2022-10-23T18:48:54.182Z,100928.00
2022-10-23T18:59:31.381Z,100935.00
2022-10-23T19:09:59.386Z,100911.00
2022-10-23T19:20:25.701Z,100921.00
2022-10-23T19:30:52.023Z,100910.00
2022-10-23T19:41:18.382Z,100876.00
2022-10-23T19:51:49.770Z,100861.00
2022-10-23T20:02:12.985Z,100883.00
2022-10-23T20:12:38.048Z,100885.00
2022-10-23T20:22:59.527Z,100883.00
2022-10-23T20:33:22.679Z,100876.00
2022-10-23T20:43:48.010Z,100874.00
2022-10-23T20:54:11.350Z,100871.00
2022-10-23T21:04:32.948Z,100873.00
2022-10-23T21:14:55.855Z,100853.00
2022-10-23T21:25:17.205Z,100854.00
2022-10-23T21:35:47.376Z,100856.00
2022-10-23T21:46:19.933Z,100901.00
2022-10-23T21:56:44.927Z,100882.00
2022-10-23T22:30:11.434Z,100906.00
2022-10-23T22:53:38.934Z,100925.00
2022-10-23T23:17:17.083Z,100868.00
